sensor_id;sensor_type;location;lat;lon;timestamp;P1;durP1;ratioP1;P2;durP2;ratioP2
47635;SDS011;33364;50.766;15.338;2023-01-01T00:01:22;90.28;;;49.95;;
47635;SDS011;33364;50.766;15.338;2023-01-01T00:03:49;97.28;;;52.90;;
47635;SDS011;33364;50.766;15.338;2023-01-01T00:06:15;115.97;;;55.03;;
47635;SDS011;33364;50.766;15.338;2023-01-01T00:08:40;106.60;;;52.78;;
47635;SDS011;33364;50.766;15.338;2023-01-01T00:11:07;112.35;;;52.60;;
47635;SDS011;33364;50.766;15.338;2023-01-01T00:13:33;110.93;;;53.47;;
47635;SDS011;33364;50.766;15.338;2023-01-01T00:16:06;138.70;;;55.10;;
47635;SDS011;33364;50.766;15.338;2023-01-01T00:18:32;114.63;;;54.20;;
47635;SDS011;33364;50.766;15.338;2023-01-01T00:21:01;119.38;;;56.75;;
47635;SDS011;33364;50.766;15.338;2023-01-01T00:23:27;139.15;;;60.53;;
47635;SDS011;33364;50.766;15.338;2023-01-01T00:25:52;122.28;;;51.28;;
47635;SDS011;33364;50.766;15.338;2023-01-01T00:28:18;109.32;;;54.63;;
47635;SDS011;33364;50.766;15.338;2023-01-01T00:30:43;112.60;;;55.78;;
47635;SDS011;33364;50.766;15.338;2023-01-01T00:33:09;148.80;;;51.78;;
47635;SDS011;33364;50.766;15.338;2023-01-01T00:35:35;134.30;;;56.22;;
47635;SDS011;33364;50.766;15.338;2023-01-01T00:38:00;122.57;;;55.70;;
47635;SDS011;33364;50.766;15.338;2023-01-01T00:40:26;116.40;;;58.25;;
47635;SDS011;33364;50.766;15.338;2023-01-01T00:42:51;142.40;;;61.90;;
47635;SDS011;33364;50.766;15.338;2023-01-01T00:45:17;345.55;;;70.07;;
47635;SDS011;33364;50.766;15.338;2023-01-01T00:47:42;99.38;;;50.95;;
47635;SDS011;33364;50.766;15.338;2023-01-01T00:50:08;88.47;;;47.22;;
47635;SDS011;33364;50.766;15.338;2023-01-01T00:52:33;124.38;;;47.45;;
47635;SDS011;33364;50.766;15.338;2023-01-01T00:54:59;99.40;;;48.63;;
47635;SDS011;33364;50.766;15.338;2023-01-01T00:57:24;100.60;;;51.88;;
47635;SDS011;33364;50.766;15.338;2023-01-01T00:59:50;82.25;;;42.78;;
47635;SDS011;33364;50.766;15.338;2023-01-01T01:02:15;80.95;;;43.08;;
47635;SDS011;33364;50.766;15.338;2023-01-01T01:04:41;146.10;;;45.95;;
47635;SDS011;33364;50.766;15.338;2023-01-01T01:07:07;100.00;;;43.75;;
47635;SDS011;33364;50.766;15.338;2023-01-01T01:09:32;76.65;;;41.05;;
47635;SDS011;33364;50.766;15.338;2023-01-01T01:11:58;85.90;;;42.08;;
47635;SDS011;33364;50.766;15.338;2023-01-01T01:14:24;121.75;;;43.22;;
47635;SDS011;33364;50.766;15.338;2023-01-01T01:16:49;78.03;;;36.75;;
47635;SDS011;33364;50.766;15.338;2023-01-01T01:19:15;124.40;;;36.65;;
47635;SDS011;33364;50.766;15.338;2023-01-01T01:21:43;77.43;;;33.55;;
47635;SDS011;33364;50.766;15.338;2023-01-01T01:24:09;62.83;;;31.85;;
47635;SDS011;33364;50.766;15.338;2023-01-01T01:26:35;113.55;;;38.55;;
47635;SDS011;33364;50.766;15.338;2023-01-01T01:29:01;67.50;;;40.25;;
47635;SDS011;33364;50.766;15.338;2023-01-01T01:31:28;72.15;;;37.65;;
47635;SDS011;33364;50.766;15.338;2023-01-01T01:33:54;77.20;;;35.80;;
47635;SDS011;33364;50.766;15.338;2023-01-01T01:36:19;71.80;;;35.35;;
47635;SDS011;33364;50.766;15.338;2023-01-01T01:38:45;53.65;;;30.25;;
47635;SDS011;33364;50.766;15.338;2023-01-01T01:41:11;56.45;;;26.63;;
47635;SDS011;33364;50.766;15.338;2023-01-01T01:46:13;71.78;;;34.50;;
47635;SDS011;33364;50.766;15.338;2023-01-01T01:48:41;57.85;;;29.67;;
47635;SDS011;33364;50.766;15.338;2023-01-01T01:51:08;48.97;;;23.88;;
47635;SDS011;33364;50.766;15.338;2023-01-01T01:53:35;63.28;;;27.50;;
47635;SDS011;33364;50.766;15.338;2023-01-01T01:56:03;68.32;;;31.38;;
47635;SDS011;33364;50.766;15.338;2023-01-01T01:58:30;69.57;;;35.10;;
47635;SDS011;33364;50.766;15.338;2023-01-01T02:00:57;73.82;;;30.52;;
47635;SDS011;33364;50.766;15.338;2023-01-01T02:05:51;42.00;;;21.60;;
47635;SDS011;33364;50.766;15.338;2023-01-01T02:08:18;61.30;;;23.33;;
47635;SDS011;33364;50.766;15.338;2023-01-01T02:10:44;58.95;;;22.92;;
47635;SDS011;33364;50.766;15.338;2023-01-01T02:13:10;53.70;;;24.38;;
47635;SDS011;33364;50.766;15.338;2023-01-01T02:15:37;50.45;;;23.27;;
47635;SDS011;33364;50.766;15.338;2023-01-01T02:18:13;55.50;;;26.27;;
47635;SDS011;33364;50.766;15.338;2023-01-01T02:20:59;40.88;;;20.13;;
47635;SDS011;33364;50.766;15.338;2023-01-01T02:23:41;36.80;;;19.70;;
47635;SDS011;33364;50.766;15.338;2023-01-01T02:26:20;40.45;;;17.52;;
47635;SDS011;33364;50.766;15.338;2023-01-01T02:31:23;47.47;;;21.73;;
47635;SDS011;33364;50.766;15.338;2023-01-01T02:33:50;39.15;;;19.90;;
47635;SDS011;33364;50.766;15.338;2023-01-01T02:36:17;57.03;;;21.27;;
47635;SDS011;33364;50.766;15.338;2023-01-01T02:38:48;40.25;;;22.45;;
47635;SDS011;33364;50.766;15.338;2023-01-01T02:41:20;56.53;;;27.02;;
47635;SDS011;33364;50.766;15.338;2023-01-01T02:43:47;36.05;;;19.77;;
47635;SDS011;33364;50.766;15.338;2023-01-01T02:46:12;45.78;;;23.73;;
47635;SDS011;33364;50.766;15.338;2023-01-01T02:48:51;51.17;;;27.83;;
47635;SDS011;33364;50.766;15.338;2023-01-01T02:56:32;44.55;;;24.95;;
47635;SDS011;33364;50.766;15.338;2023-01-01T02:59:04;48.63;;;22.65;;
47635;SDS011;33364;50.766;15.338;2023-01-01T03:15:50;22.33;;;12.10;;
47635;SDS011;33364;50.766;15.338;2023-01-01T03:20:25;44.67;;;20.63;;
47635;SDS011;33364;50.766;15.338;2023-01-01T03:22:51;44.67;;;18.92;;
47635;SDS011;33364;50.766;15.338;2023-01-01T03:25:23;32.55;;;19.27;;
47635;SDS011;33364;50.766;15.338;2023-01-01T03:27:50;30.67;;;14.55;;
47635;SDS011;33364;50.766;15.338;2023-01-01T03:30:17;46.58;;;20.27;;
47635;SDS011;33364;50.766;15.338;2023-01-01T03:32:46;38.78;;;21.00;;
47635;SDS011;33364;50.766;15.338;2023-01-01T03:38:13;33.60;;;18.98;;
47635;SDS011;33364;50.766;15.338;2023-01-01T03:40:41;41.85;;;19.65;;
47635;SDS011;33364;50.766;15.338;2023-01-01T03:43:10;36.47;;;19.55;;
47635;SDS011;33364;50.766;15.338;2023-01-01T03:45:40;39.08;;;20.88;;
47635;SDS011;33364;50.766;15.338;2023-01-01T03:48:08;29.30;;;14.90;;
47635;SDS011;33364;50.766;15.338;2023-01-01T03:50:40;40.65;;;23.98;;
47635;SDS011;33364;50.766;15.338;2023-01-01T03:53:11;38.80;;;19.42;;
47635;SDS011;33364;50.766;15.338;2023-01-01T03:55:42;37.05;;;17.02;;
47635;SDS011;33364;50.766;15.338;2023-01-01T04:00:45;41.97;;;18.38;;
47635;SDS011;33364;50.766;15.338;2023-01-01T04:03:14;38.05;;;20.38;;
47635;SDS011;33364;50.766;15.338;2023-01-01T04:05:41;36.45;;;21.50;;
47635;SDS011;33364;50.766;15.338;2023-01-01T04:08:07;34.60;;;19.00;;
47635;SDS011;33364;50.766;15.338;2023-01-01T04:10:34;29.52;;;16.08;;
47635;SDS011;33364;50.766;15.338;2023-01-01T04:13:01;37.42;;;20.38;;
47635;SDS011;33364;50.766;15.338;2023-01-01T04:15:28;37.28;;;18.27;;
47635;SDS011;33364;50.766;15.338;2023-01-01T04:17:53;44.85;;;22.70;;
47635;SDS011;33364;50.766;15.338;2023-01-01T04:20:19;32.28;;;17.92;;
47635;SDS011;33364;50.766;15.338;2023-01-01T04:22:45;33.85;;;15.52;;
47635;SDS011;33364;50.766;15.338;2023-01-01T04:25:11;37.88;;;20.17;;
47635;SDS011;33364;50.766;15.338;2023-01-01T04:27:37;33.78;;;17.38;;
47635;SDS011;33364;50.766;15.338;2023-01-01T04:30:03;25.45;;;13.15;;
47635;SDS011;33364;50.766;15.338;2023-01-01T04:32:29;24.65;;;13.40;;
47635;SDS011;33364;50.766;15.338;2023-01-01T04:34:56;27.52;;;14.85;;
47635;SDS011;33364;50.766;15.338;2023-01-01T04:37:21;26.80;;;14.10;;
47635;SDS011;33364;50.766;15.338;2023-01-01T04:39:47;25.38;;;13.60;;
47635;SDS011;33364;50.766;15.338;2023-01-01T04:42:12;33.15;;;18.45;;
47635;SDS011;33364;50.766;15.338;2023-01-01T04:44:38;33.88;;;19.15;;
47635;SDS011;33364;50.766;15.338;2023-01-01T04:47:04;25.70;;;15.43;;
47635;SDS011;33364;50.766;15.338;2023-01-01T04:49:30;30.95;;;18.25;;
47635;SDS011;33364;50.766;15.338;2023-01-01T04:51:55;22.83;;;13.48;;
47635;SDS011;33364;50.766;15.338;2023-01-01T04:54:21;34.60;;;18.80;;
47635;SDS011;33364;50.766;15.338;2023-01-01T04:56:46;30.13;;;16.70;;
47635;SDS011;33364;50.766;15.338;2023-01-01T04:59:12;26.67;;;14.60;;
47635;SDS011;33364;50.766;15.338;2023-01-01T05:01:37;23.17;;;13.52;;
47635;SDS011;33364;50.766;15.338;2023-01-01T05:04:03;22.88;;;11.90;;
47635;SDS011;33364;50.766;15.338;2023-01-01T05:06:29;34.53;;;14.93;;
47635;SDS011;33364;50.766;15.338;2023-01-01T05:08:55;33.33;;;16.98;;
47635;SDS011;33364;50.766;15.338;2023-01-01T05:11:24;41.67;;;18.70;;
47635;SDS011;33364;50.766;15.338;2023-01-01T05:13:51;55.65;;;21.67;;
47635;SDS011;33364;50.766;15.338;2023-01-01T05:16:18;59.58;;;25.55;;
47635;SDS011;33364;50.766;15.338;2023-01-01T05:18:45;39.72;;;18.42;;
47635;SDS011;33364;50.766;15.338;2023-01-01T05:21:12;36.95;;;17.50;;
47635;SDS011;33364;50.766;15.338;2023-01-01T05:23:38;26.48;;;13.57;;
47635;SDS011;33364;50.766;15.338;2023-01-01T05:26:23;45.92;;;20.42;;
47635;SDS011;33364;50.766;15.338;2023-01-01T05:28:49;67.03;;;26.35;;
47635;SDS011;33364;50.766;15.338;2023-01-01T05:31:19;90.32;;;33.13;;
47635;SDS011;33364;50.766;15.338;2023-01-01T05:33:45;43.63;;;18.67;;
47635;SDS011;33364;50.766;15.338;2023-01-01T05:36:14;23.40;;;12.13;;
47635;SDS011;33364;50.766;15.338;2023-01-01T05:38:40;31.13;;;14.52;;
47635;SDS011;33364;50.766;15.338;2023-01-01T05:41:06;79.13;;;31.58;;
47635;SDS011;33364;50.766;15.338;2023-01-01T05:43:32;37.05;;;17.65;;
47635;SDS011;33364;50.766;15.338;2023-01-01T05:45:59;27.00;;;12.32;;
47635;SDS011;33364;50.766;15.338;2023-01-01T05:48:25;17.52;;;9.70;;
47635;SDS011;33364;50.766;15.338;2023-01-01T05:50:50;64.72;;;27.85;;
47635;SDS011;33364;50.766;15.338;2023-01-01T05:53:16;69.20;;;27.80;;
47635;SDS011;33364;50.766;15.338;2023-01-01T05:55:41;36.38;;;15.93;;
47635;SDS011;33364;50.766;15.338;2023-01-01T05:58:07;27.80;;;15.20;;
47635;SDS011;33364;50.766;15.338;2023-01-01T06:00:32;18.27;;;10.00;;
47635;SDS011;33364;50.766;15.338;2023-01-01T06:02:58;23.73;;;11.70;;
47635;SDS011;33364;50.766;15.338;2023-01-01T06:05:25;26.48;;;14.07;;
47635;SDS011;33364;50.766;15.338;2023-01-01T06:07:50;18.65;;;10.32;;
47635;SDS011;33364;50.766;15.338;2023-01-01T06:10:16;36.10;;;17.90;;
47635;SDS011;33364;50.766;15.338;2023-01-01T06:12:41;26.80;;;12.55;;
47635;SDS011;33364;50.766;15.338;2023-01-01T06:15:07;36.35;;;17.15;;
47635;SDS011;33364;50.766;15.338;2023-01-01T06:17:33;27.65;;;14.50;;
47635;SDS011;33364;50.766;15.338;2023-01-01T06:19:58;55.90;;;21.58;;
47635;SDS011;33364;50.766;15.338;2023-01-01T06:22:24;33.95;;;15.68;;
47635;SDS011;33364;50.766;15.338;2023-01-01T06:24:49;30.00;;;13.77;;
47635;SDS011;33364;50.766;15.338;2023-01-01T06:27:15;24.15;;;11.15;;
47635;SDS011;33364;50.766;15.338;2023-01-01T06:29:40;26.73;;;12.65;;
47635;SDS011;33364;50.766;15.338;2023-01-01T06:32:06;19.90;;;10.80;;
47635;SDS011;33364;50.766;15.338;2023-01-01T06:34:32;17.55;;;10.18;;
47635;SDS011;33364;50.766;15.338;2023-01-01T06:36:57;47.33;;;20.88;;
47635;SDS011;33364;50.766;15.338;2023-01-01T06:39:23;64.85;;;23.98;;
47635;SDS011;33364;50.766;15.338;2023-01-01T06:41:48;75.97;;;26.50;;
47635;SDS011;33364;50.766;15.338;2023-01-01T06:44:14;21.15;;;10.90;;
47635;SDS011;33364;50.766;15.338;2023-01-01T06:46:40;20.25;;;10.63;;
47635;SDS011;33364;50.766;15.338;2023-01-01T06:49:06;26.58;;;13.48;;
47635;SDS011;33364;50.766;15.338;2023-01-01T06:51:38;27.63;;;13.77;;
47635;SDS011;33364;50.766;15.338;2023-01-01T06:54:04;18.63;;;9.10;;
47635;SDS011;33364;50.766;15.338;2023-01-01T06:56:30;18.25;;;8.68;;
47635;SDS011;33364;50.766;15.338;2023-01-01T06:58:55;13.57;;;7.90;;
47635;SDS011;33364;50.766;15.338;2023-01-01T07:01:22;14.85;;;7.32;;
47635;SDS011;33364;50.766;15.338;2023-01-01T07:03:52;12.70;;;6.85;;
47635;SDS011;33364;50.766;15.338;2023-01-01T07:06:18;11.38;;;6.20;;
47635;SDS011;33364;50.766;15.338;2023-01-01T07:08:43;11.70;;;6.60;;
47635;SDS011;33364;50.766;15.338;2023-01-01T07:11:09;15.15;;;8.43;;
47635;SDS011;33364;50.766;15.338;2023-01-01T07:13:34;14.68;;;7.68;;
47635;SDS011;33364;50.766;15.338;2023-01-01T07:16:00;12.90;;;8.25;;
47635;SDS011;33364;50.766;15.338;2023-01-01T07:18:26;13.85;;;7.28;;
47635;SDS011;33364;50.766;15.338;2023-01-01T07:20:56;9.68;;;6.93;;
47635;SDS011;33364;50.766;15.338;2023-01-01T07:23:21;10.23;;;6.45;;
47635;SDS011;33364;50.766;15.338;2023-01-01T07:25:48;16.35;;;8.57;;
47635;SDS011;33364;50.766;15.338;2023-01-01T07:28:13;12.18;;;7.15;;
47635;SDS011;33364;50.766;15.338;2023-01-01T07:30:39;18.52;;;10.10;;
47635;SDS011;33364;50.766;15.338;2023-01-01T07:33:04;22.17;;;11.90;;
47635;SDS011;33364;50.766;15.338;2023-01-01T07:35:30;15.65;;;8.32;;
47635;SDS011;33364;50.766;15.338;2023-01-01T07:37:56;17.73;;;9.85;;
47635;SDS011;33364;50.766;15.338;2023-01-01T07:40:22;18.10;;;9.52;;
47635;SDS011;33364;50.766;15.338;2023-01-01T07:42:47;12.25;;;7.03;;
47635;SDS011;33364;50.766;15.338;2023-01-01T07:45:13;16.52;;;7.70;;
47635;SDS011;33364;50.766;15.338;2023-01-01T07:47:38;13.75;;;7.72;;
47635;SDS011;33364;50.766;15.338;2023-01-01T07:50:04;17.20;;;9.00;;
47635;SDS011;33364;50.766;15.338;2023-01-01T07:52:30;12.68;;;8.00;;
47635;SDS011;33364;50.766;15.338;2023-01-01T07:54:56;14.65;;;7.93;;
47635;SDS011;33364;50.766;15.338;2023-01-01T07:57:21;12.15;;;8.07;;
47635;SDS011;33364;50.766;15.338;2023-01-01T07:59:47;16.38;;;10.35;;
47635;SDS011;33364;50.766;15.338;2023-01-01T08:02:12;32.50;;;16.02;;
47635;SDS011;33364;50.766;15.338;2023-01-01T08:04:38;51.05;;;23.58;;
47635;SDS011;33364;50.766;15.338;2023-01-01T08:07:04;22.52;;;12.93;;
47635;SDS011;33364;50.766;15.338;2023-01-01T08:09:30;21.08;;;11.93;;
47635;SDS011;33364;50.766;15.338;2023-01-01T08:11:55;142.57;;;64.22;;
47635;SDS011;33364;50.766;15.338;2023-01-01T08:14:23;81.75;;;40.65;;
47635;SDS011;33364;50.766;15.338;2023-01-01T08:16:48;41.17;;;22.15;;
47635;SDS011;33364;50.766;15.338;2023-01-01T08:19:14;27.90;;;15.90;;
47635;SDS011;33364;50.766;15.338;2023-01-01T08:21:39;45.00;;;20.10;;
47635;SDS011;33364;50.766;15.338;2023-01-01T08:24:05;100.05;;;47.30;;
47635;SDS011;33364;50.766;15.338;2023-01-01T08:26:32;89.40;;;42.83;;
47635;SDS011;33364;50.766;15.338;2023-01-01T08:28:58;95.45;;;58.67;;
47635;SDS011;33364;50.766;15.338;2023-01-01T08:31:25;74.47;;;42.38;;
47635;SDS011;33364;50.766;15.338;2023-01-01T08:33:51;40.17;;;22.75;;
47635;SDS011;33364;50.766;15.338;2023-01-01T08:36:16;24.33;;;13.60;;
47635;SDS011;33364;50.766;15.338;2023-01-01T08:38:42;25.83;;;14.38;;
47635;SDS011;33364;50.766;15.338;2023-01-01T08:41:08;31.88;;;18.88;;
47635;SDS011;33364;50.766;15.338;2023-01-01T08:43:34;27.52;;;16.42;;
47635;SDS011;33364;50.766;15.338;2023-01-01T08:45:59;28.17;;;15.93;;
47635;SDS011;33364;50.766;15.338;2023-01-01T08:48:25;37.40;;;20.83;;
47635;SDS011;33364;50.766;15.338;2023-01-01T08:50:54;45.60;;;19.63;;
47635;SDS011;33364;50.766;15.338;2023-01-01T08:53:19;23.83;;;12.82;;
47635;SDS011;33364;50.766;15.338;2023-01-01T08:55:53;102.93;;;33.40;;
47635;SDS011;33364;50.766;15.338;2023-01-01T08:58:19;58.00;;;20.38;;
47635;SDS011;33364;50.766;15.338;2023-01-01T09:00:45;66.50;;;30.15;;
47635;SDS011;33364;50.766;15.338;2023-01-01T09:03:10;64.43;;;26.38;;
47635;SDS011;33364;50.766;15.338;2023-01-01T09:05:36;67.70;;;30.75;;
47635;SDS011;33364;50.766;15.338;2023-01-01T09:08:01;65.20;;;27.38;;
47635;SDS011;33364;50.766;15.338;2023-01-01T09:10:27;74.95;;;27.45;;
47635;SDS011;33364;50.766;15.338;2023-01-01T09:12:53;73.70;;;28.20;;
47635;SDS011;33364;50.766;15.338;2023-01-01T09:15:18;59.08;;;27.60;;
47635;SDS011;33364;50.766;15.338;2023-01-01T09:17:44;87.00;;;33.67;;
47635;SDS011;33364;50.766;15.338;2023-01-01T09:20:09;32.03;;;15.45;;
47635;SDS011;33364;50.766;15.338;2023-01-01T09:22:35;69.65;;;36.88;;
47635;SDS011;33364;50.766;15.338;2023-01-01T09:25:00;84.93;;;40.65;;
47635;SDS011;33364;50.766;15.338;2023-01-01T09:27:26;60.45;;;26.17;;
47635;SDS011;33364;50.766;15.338;2023-01-01T09:29:51;71.90;;;29.52;;
47635;SDS011;33364;50.766;15.338;2023-01-01T09:32:17;55.70;;;27.02;;
47635;SDS011;33364;50.766;15.338;2023-01-01T09:34:43;47.40;;;25.00;;
47635;SDS011;33364;50.766;15.338;2023-01-01T09:37:08;40.65;;;21.70;;
47635;SDS011;33364;50.766;15.338;2023-01-01T09:39:34;41.53;;;22.08;;
47635;SDS011;33364;50.766;15.338;2023-01-01T09:46:58;110.93;;;44.50;;
47635;SDS011;33364;50.766;15.338;2023-01-01T09:49:28;46.33;;;21.95;;
47635;SDS011;33364;50.766;15.338;2023-01-01T09:51:55;42.55;;;23.60;;
47635;SDS011;33364;50.766;15.338;2023-01-01T09:54:29;28.08;;;15.43;;
47635;SDS011;33364;50.766;15.338;2023-01-01T09:56:58;22.00;;;12.43;;
47635;SDS011;33364;50.766;15.338;2023-01-01T09:59:24;25.58;;;12.80;;
47635;SDS011;33364;50.766;15.338;2023-01-01T10:07:20;61.38;;;22.63;;
47635;SDS011;33364;50.766;15.338;2023-01-01T10:14:54;17.60;;;10.25;;
47635;SDS011;33364;50.766;15.338;2023-01-01T10:17:37;20.42;;;11.27;;
47635;SDS011;33364;50.766;15.338;2023-01-01T10:20:15;27.10;;;17.40;;
47635;SDS011;33364;50.766;15.338;2023-01-01T10:22:42;26.88;;;16.33;;
47635;SDS011;33364;50.766;15.338;2023-01-01T10:25:22;23.33;;;15.43;;
47635;SDS011;33364;50.766;15.338;2023-01-01T10:30:23;27.45;;;16.30;;
47635;SDS011;33364;50.766;15.338;2023-01-01T10:32:50;25.30;;;15.85;;
47635;SDS011;33364;50.766;15.338;2023-01-01T10:35:17;28.77;;;17.70;;
47635;SDS011;33364;50.766;15.338;2023-01-01T10:37:43;28.52;;;15.93;;
47635;SDS011;33364;50.766;15.338;2023-01-01T10:40:18;21.98;;;12.63;;
47635;SDS011;33364;50.766;15.338;2023-01-01T10:42:46;24.33;;;14.43;;
47635;SDS011;33364;50.766;15.338;2023-01-01T10:45:16;24.48;;;14.55;;
47635;SDS011;33364;50.766;15.338;2023-01-01T10:50:39;22.65;;;13.15;;
47635;SDS011;33364;50.766;15.338;2023-01-01T10:53:07;19.48;;;12.50;;
47635;SDS011;33364;50.766;15.338;2023-01-01T10:55:42;21.83;;;12.95;;
47635;SDS011;33364;50.766;15.338;2023-01-01T10:58:25;22.58;;;14.00;;
47635;SDS011;33364;50.766;15.338;2023-01-01T11:00:58;57.15;;;24.02;;
47635;SDS011;33364;50.766;15.338;2023-01-01T11:03:24;62.30;;;22.73;;
47635;SDS011;33364;50.766;15.338;2023-01-01T11:08:28;15.20;;;10.30;;
47635;SDS011;33364;50.766;15.338;2023-01-01T11:10:55;17.83;;;10.60;;
47635;SDS011;33364;50.766;15.338;2023-01-01T11:13:22;16.83;;;8.93;;
47635;SDS011;33364;50.766;15.338;2023-01-01T11:15:47;20.10;;;9.98;;
47635;SDS011;33364;50.766;15.338;2023-01-01T11:18:14;22.58;;;15.20;;
47635;SDS011;33364;50.766;15.338;2023-01-01T11:20:40;19.45;;;11.65;;
47635;SDS011;33364;50.766;15.338;2023-01-01T11:23:17;17.85;;;10.75;;
47635;SDS011;33364;50.766;15.338;2023-01-01T11:25:55;21.30;;;13.27;;
47635;SDS011;33364;50.766;15.338;2023-01-01T11:28:21;20.02;;;12.57;;
47635;SDS011;33364;50.766;15.338;2023-01-01T11:33:28;23.38;;;15.70;;
47635;SDS011;33364;50.766;15.338;2023-01-01T11:35:54;16.52;;;10.68;;
47635;SDS011;33364;50.766;15.338;2023-01-01T11:38:21;20.45;;;11.43;;
47635;SDS011;33364;50.766;15.338;2023-01-01T11:40:48;20.25;;;10.43;;
47635;SDS011;33364;50.766;15.338;2023-01-01T11:43:22;16.63;;;11.13;;
47635;SDS011;33364;50.766;15.338;2023-01-01T11:45:48;17.38;;;10.73;;
47635;SDS011;33364;50.766;15.338;2023-01-01T11:48:16;14.15;;;9.82;;
47635;SDS011;33364;50.766;15.338;2023-01-01T11:50:49;14.23;;;9.98;;
47635;SDS011;33364;50.766;15.338;2023-01-01T11:53:17;16.83;;;9.63;;
47635;SDS011;33364;50.766;15.338;2023-01-01T11:58:16;39.75;;;19.98;;
47635;SDS011;33364;50.766;15.338;2023-01-01T12:00:42;14.57;;;9.43;;
47635;SDS011;33364;50.766;15.338;2023-01-01T12:03:21;15.77;;;8.40;;
47635;SDS011;33364;50.766;15.338;2023-01-01T12:06:31;16.90;;;10.63;;
47635;SDS011;33364;50.766;15.338;2023-01-01T12:08:38;15.10;;;9.13;;
47635;SDS011;33364;50.766;15.338;2023-01-01T12:13:32;18.65;;;10.02;;
47635;SDS011;33364;50.766;15.338;2023-01-01T12:16:01;14.88;;;10.43;;
47635;SDS011;33364;50.766;15.338;2023-01-01T12:18:44;13.95;;;8.32;;
47635;SDS011;33364;50.766;15.338;2023-01-01T12:21:16;11.30;;;7.10;;
47635;SDS011;33364;50.766;15.338;2023-01-01T12:23:43;11.23;;;7.10;;
47635;SDS011;33364;50.766;15.338;2023-01-01T12:57:35;12.73;;;9.00;;
47635;SDS011;33364;50.766;15.338;2023-01-01T13:05:06;13.27;;;8.63;;
47635;SDS011;33364;50.766;15.338;2023-01-01T13:07:37;13.95;;;8.73;;
47635;SDS011;33364;50.766;15.338;2023-01-01T13:10:16;12.23;;;9.27;;
47635;SDS011;33364;50.766;15.338;2023-01-01T13:12:45;21.90;;;19.42;;
47635;SDS011;33364;50.766;15.338;2023-01-01T13:17:55;17.75;;;13.00;;
47635;SDS011;33364;50.766;15.338;2023-01-01T13:20:22;14.10;;;8.20;;
47635;SDS011;33364;50.766;15.338;2023-01-01T13:22:48;10.73;;;7.35;;
47635;SDS011;33364;50.766;15.338;2023-01-01T13:35:39;14.85;;;9.90;;
47635;SDS011;33364;50.766;15.338;2023-01-01T13:38:09;12.32;;;8.23;;
47635;SDS011;33364;50.766;15.338;2023-01-01T13:40:50;72.47;;;42.95;;
47635;SDS011;33364;50.766;15.338;2023-01-01T13:43:17;30.27;;;17.25;;
47635;SDS011;33364;50.766;15.338;2023-01-01T13:45:44;26.38;;;14.73;;
47635;SDS011;33364;50.766;15.338;2023-01-01T14:03:51;15.93;;;8.27;;
47635;SDS011;33364;50.766;15.338;2023-01-01T14:06:35;11.68;;;6.68;;
47635;SDS011;33364;50.766;15.338;2023-01-01T14:09:08;35.53;;;20.67;;
47635;SDS011;33364;50.766;15.338;2023-01-01T14:11:35;12.93;;;7.97;;
47635;SDS011;33364;50.766;15.338;2023-01-01T14:14:01;17.05;;;7.95;;
47635;SDS011;33364;50.766;15.338;2023-01-01T14:16:26;13.73;;;7.82;;
47635;SDS011;33364;50.766;15.338;2023-01-01T14:18:52;12.80;;;8.43;;
47635;SDS011;33364;50.766;15.338;2023-01-01T14:21:20;16.55;;;10.55;;
47635;SDS011;33364;50.766;15.338;2023-01-01T14:23:50;17.02;;;9.45;;
47635;SDS011;33364;50.766;15.338;2023-01-01T14:26:20;17.65;;;11.73;;
47635;SDS011;33364;50.766;15.338;2023-01-01T14:28:46;17.90;;;10.80;;
47635;SDS011;33364;50.766;15.338;2023-01-01T14:33:37;18.23;;;10.75;;
47635;SDS011;33364;50.766;15.338;2023-01-01T14:36:05;15.75;;;9.07;;
47635;SDS011;33364;50.766;15.338;2023-01-01T14:38:31;28.88;;;13.90;;
47635;SDS011;33364;50.766;15.338;2023-01-01T14:41:10;16.92;;;10.73;;
47635;SDS011;33364;50.766;15.338;2023-01-01T14:43:38;17.58;;;10.60;;
47635;SDS011;33364;50.766;15.338;2023-01-01T14:46:05;16.35;;;9.50;;
47635;SDS011;33364;50.766;15.338;2023-01-01T14:48:30;19.70;;;11.40;;
47635;SDS011;33364;50.766;15.338;2023-01-01T14:50:56;23.48;;;12.45;;
47635;SDS011;33364;50.766;15.338;2023-01-01T14:53:23;95.72;;;52.97;;
47635;SDS011;33364;50.766;15.338;2023-01-01T14:55:53;31.60;;;17.60;;
47635;SDS011;33364;50.766;15.338;2023-01-01T14:58:19;29.60;;;15.90;;
47635;SDS011;33364;50.766;15.338;2023-01-01T15:00:46;35.75;;;19.95;;
47635;SDS011;33364;50.766;15.338;2023-01-01T15:05:37;76.25;;;48.42;;
47635;SDS011;33364;50.766;15.338;2023-01-01T15:08:05;27.30;;;15.35;;
47635;SDS011;33364;50.766;15.338;2023-01-01T15:10:32;22.48;;;13.00;;
47635;SDS011;33364;50.766;15.338;2023-01-01T15:12:59;24.10;;;14.73;;
47635;SDS011;33364;50.766;15.338;2023-01-01T15:15:38;18.63;;;11.55;;
47635;SDS011;33364;50.766;15.338;2023-01-01T15:18:04;25.65;;;15.48;;
47635;SDS011;33364;50.766;15.338;2023-01-01T15:20:30;33.08;;;19.23;;
47635;SDS011;33364;50.766;15.338;2023-01-01T15:22:56;16.67;;;10.18;;
47635;SDS011;33364;50.766;15.338;2023-01-01T15:25:21;22.88;;;13.38;;
47635;SDS011;33364;50.766;15.338;2023-01-01T15:27:49;23.75;;;14.07;;
47635;SDS011;33364;50.766;15.338;2023-01-01T15:30:22;24.85;;;16.15;;
47635;SDS011;33364;50.766;15.338;2023-01-01T15:32:48;27.08;;;11.65;;
47635;SDS011;33364;50.766;15.338;2023-01-01T15:37:44;24.77;;;16.77;;
47635;SDS011;33364;50.766;15.338;2023-01-01T15:42:38;26.17;;;15.70;;
47635;SDS011;33364;50.766;15.338;2023-01-01T15:45:26;16.98;;;11.25;;
47635;SDS011;33364;50.766;15.338;2023-01-01T15:47:56;24.88;;;12.57;;
47635;SDS011;33364;50.766;15.338;2023-01-01T15:52:48;31.38;;;19.05;;
47635;SDS011;33364;50.766;15.338;2023-01-01T15:55:15;21.80;;;10.80;;
47635;SDS011;33364;50.766;15.338;2023-01-01T15:57:44;24.92;;;14.60;;
47635;SDS011;33364;50.766;15.338;2023-01-01T16:00:44;27.52;;;16.75;;
47635;SDS011;33364;50.766;15.338;2023-01-01T16:03:11;20.13;;;11.82;;
47635;SDS011;33364;50.766;15.338;2023-01-01T16:05:44;20.20;;;13.18;;
47635;SDS011;33364;50.766;15.338;2023-01-01T16:08:10;21.98;;;13.13;;
47635;SDS011;33364;50.766;15.338;2023-01-01T16:10:36;29.48;;;17.73;;
47635;SDS011;33364;50.766;15.338;2023-01-01T16:13:01;25.38;;;15.05;;
47635;SDS011;33364;50.766;15.338;2023-01-01T16:15:27;33.25;;;18.27;;
47635;SDS011;33364;50.766;15.338;2023-01-01T16:17:52;27.73;;;15.88;;
47635;SDS011;33364;50.766;15.338;2023-01-01T16:20:19;30.30;;;18.25;;
47635;SDS011;33364;50.766;15.338;2023-01-01T16:22:46;40.50;;;21.30;;
47635;SDS011;33364;50.766;15.338;2023-01-01T16:27:38;29.30;;;15.73;;
47635;SDS011;33364;50.766;15.338;2023-01-01T16:30:04;35.28;;;21.75;;
47635;SDS011;33364;50.766;15.338;2023-01-01T16:32:29;19.67;;;11.82;;
47635;SDS011;33364;50.766;15.338;2023-01-01T16:34:55;28.67;;;16.35;;
47635;SDS011;33364;50.766;15.338;2023-01-01T16:37:20;48.08;;;27.75;;
47635;SDS011;33364;50.766;15.338;2023-01-01T16:39:48;34.58;;;21.55;;